This is the latest recevied weather packets stored in our database for station/object KL1SF-7. If no packets are shown the sender has not sent any weather packets the latest 1 day(s).
| Time | Temp. | Humidity | Pressure | Rain* | Wind** | Luminosity | Snow |
|---|---|---|---|---|---|---|---|
| 1778029417 | 7.22° C | 57% | 1011.4 hPa | 0 mm | 0.45 m/s, 223° | - | - |
| 1778028818 | 7.22° C | 57% | 1011.9 hPa | 0 mm | 0.89 m/s, 217° | - | - |
| 1778028208 | 7.78° C | 53% | 1011.9 hPa | 0 mm | 0.45 m/s, 195° | - | - |
| 1778027620 | 7.78° C | 54% | 1011.7 hPa | 0 mm | 0.45 m/s, 233° | - | - |
| 1778027001 | 7.78° C | 54% | 1011 hPa | 0 mm | 0.45 m/s, 230° | - | - |
| 1778026411 | 7.78° C | 59% | 1011 hPa | 0 mm | 0 m/s | - | - |
| 1778025826 | 8.33° C | 57% | 1011.2 hPa | 0 mm | 0 m/s | - | - |
| 1778025207 | 10° C | 48% | 1010.6 hPa | 0 mm | 0.89 m/s, 213° | - | - |
| 1778024596 | 11.11° C | 31% | 1010.6 hPa | 0 mm | 0 m/s | - | - |
| 1778024014 | 11.67° C | 30% | 1010.8 hPa | 0 mm | 0 m/s | - | - |
| 1778023415 | 11.67° C | 28% | 1010.7 hPa | 0 mm | 0 m/s | - | - |
| 1778022808 | 12.22° C | 27% | 1010.7 hPa | 0 mm | 0 m/s | - | - |
| 1778022224 | 12.22° C | 27% | 1010.5 hPa | 0 mm | 0.45 m/s, 261° | - | - |
| 1778021604 | 12.78° C | 25% | 1010.5 hPa | 0 mm | 0.45 m/s, 328° | - | - |
| 1778021014 | 12.78° C | 25% | 1010.5 hPa | 0 mm | 0.45 m/s, 267° | - | - |
| 1778020427 | 13.33° C | 25% | 1010.3 hPa | 0 mm | 0.45 m/s, 233° | - | - |
| 1778019807 | 12.78° C | 26% | 1010.8 hPa | 0 mm | 0.45 m/s, 357° | - | - |
| 1778019217 | 12.78° C | 27% | 1010.8 hPa | 0 mm | 0.45 m/s, 248° | - | - |
| 1778018614 | 12.78° C | 26% | 1010.4 hPa | 0 mm | 0.89 m/s, 203° | - | - |
| 1778018015 | 13.33° C | 25% | 1010.7 hPa | 0 mm | 0.45 m/s, 248° | - | - |
| 1778017411 | 13.33° C | 26% | 1010.7 hPa | 0 mm | 0.45 m/s, 212° | - | - |
| 1778016827 | 12.78° C | 27% | 1010.7 hPa | 0 mm | 0 m/s | - | - |
| 1778016208 | 13.33° C | 26% | 1011.1 hPa | 0 mm | 0.45 m/s, 223° | - | - |
| 1778015600 | 13.33° C | 26% | 1011.1 hPa | 0 mm | 0.45 m/s, 217° | - | - |
| 1778015017 | 12.78° C | 26% | 1011.2 hPa | 0 mm | 0 m/s | - | - |
* Rain since midnight (hover to see other rain measurements)
** Current wind speed in m/s (hover to see current wind gust speed)